Time;durP1;ratioP1;P1;durP2;ratioP2;P2;SDS_P1;SDS_P2;PMS_P1;PMS_P2;Temp;Humidity;BMP_temperature;BMP_pressure;BME280_temperature;BME280_humidity;BME280_pressure;Samples;Min_cycle;Max_cycle;Signal;HPM_P1;HPM_P2
2023/12/15 00:02:14;;;;;;;6.67;5.77;;;15.80;64.10;16.60;101927.00;;;;5060862;28;20186;-45
2023/12/15 00:04:40;;;;;;;5.93;5.33;;;15.80;64.20;16.60;101930.00;;;;5063244;28;20201;-45
2023/12/15 00:07:06;;;;;;;6.63;6.03;;;15.80;64.10;16.60;101926.00;;;;5061344;28;20553;-45
2023/12/15 00:09:31;;;;;;;6.40;5.80;;;15.80;64.10;16.60;101928.00;;;;5062935;28;20192;-44
2023/12/15 00:11:57;;;;;;;6.00;5.40;;;15.70;64.10;16.60;101936.00;;;;5062046;28;20193;-45
2023/12/15 00:14:23;;;;;;;5.90;5.40;;;15.70;64.90;16.60;101940.00;;;;5061150;28;20185;-45
2023/12/15 00:16:49;;;;;;;5.80;5.30;;;15.70;64.10;16.60;101938.00;;;;5060081;28;20734;-45
2023/12/15 00:19:14;;;;;;;5.70;5.20;;;15.70;64.10;16.60;101936.00;;;;5059529;28;20184;-44
2023/12/15 00:21:40;;;;;;;6.03;5.37;;;15.70;64.20;16.60;101936.00;;;;5060332;28;20204;-44
2023/12/15 00:24:08;;;;;;;5.83;5.33;;;15.70;64.20;16.60;101934.00;;;;5053608;28;20182;-44
2023/12/15 00:26:37;;;;;;;5.67;5.17;;;15.70;64.20;16.60;101942.00;;;;5062742;28;20189;-45
2023/12/15 00:29:06;;;;;;;5.53;5.03;;;15.70;64.20;16.60;101933.00;;;;5061234;28;20177;-44
2023/12/15 00:31:31;;;;;;;5.90;5.40;;;15.60;64.00;16.50;101926.00;;;;5062483;28;20231;-44
2023/12/15 00:33:57;;;;;;;5.53;5.03;;;15.60;64.10;16.50;101931.00;;;;5058522;28;20185;-44
2023/12/15 00:36:23;;;;;;;5.90;5.40;;;15.60;64.10;16.50;101941.00;;;;5061375;28;20214;-43
2023/12/15 00:38:49;;;;;;;5.80;5.30;;;15.60;63.90;16.50;101948.00;;;;5063272;28;20605;-44
2023/12/15 00:41:15;;;;;;;6.00;5.50;;;15.60;64.00;16.50;101950.00;;;;5062474;28;20167;-45
2023/12/15 00:43:40;;;;;;;5.30;4.90;;;15.60;64.00;16.50;101951.00;;;;5071064;28;20663;-45
2023/12/15 00:46:06;;;;;;;5.67;5.17;;;15.60;64.00;16.50;101949.00;;;;5062014;28;20614;-44
2023/12/15 00:48:32;;;;;;;5.53;5.03;;;15.60;64.10;16.50;101954.00;;;;5062569;28;20194;-44
2023/12/15 00:50:58;;;;;;;6.03;5.50;;;15.60;64.10;16.50;101950.00;;;;5062042;28;20186;-44
2023/12/15 00:53:24;;;;;;;5.60;5.10;;;15.60;64.10;16.50;101960.00;;;;5061091;28;20248;-44
2023/12/15 00:55:49;;;;;;;6.00;5.50;;;15.50;63.90;16.40;101956.00;;;;5062703;28;20697;-44
2023/12/15 00:58:15;;;;;;;5.10;4.70;;;15.60;64.10;16.40;101948.00;;;;5059727;28;20227;-44
2023/12/15 01:00:41;;;;;;;5.70;5.20;;;15.50;64.00;16.40;101952.00;;;;5062724;28;20172;-43
2023/12/15 01:03:07;;;;;;;5.57;5.07;;;15.50;64.00;16.40;101961.00;;;;5057783;28;20182;-44
2023/12/15 01:05:32;;;;;;;5.80;5.30;;;15.50;64.00;16.40;101973.00;;;;5061923;28;20694;-46
2023/12/15 01:07:58;;;;;;;5.67;5.17;;;15.50;64.00;16.40;101979.00;;;;5060467;28;20819;-45
2023/12/15 01:10:24;;;;;;;5.60;5.10;;;15.40;64.00;16.30;101974.00;;;;5060109;28;20196;-45
2023/12/15 01:12:50;;;;;;;5.90;5.40;;;15.40;64.10;16.30;101987.00;;;;5060094;28;20182;-44
2023/12/15 01:15:15;;;;;;;6.13;5.63;;;15.40;64.10;16.30;101984.00;;;;5058766;28;20210;-44
2023/12/15 01:17:41;;;;;;;5.40;5.00;;;15.40;64.10;16.30;101980.00;;;;5061856;28;20240;-45
2023/12/15 01:20:10;;;;;;;5.40;4.90;;;15.40;64.20;16.30;101990.00;;;;5059188;28;20242;-43
2023/12/15 01:22:36;;;;;;;5.70;5.20;;;15.50;64.30;16.40;101986.00;;;;5061285;28;20192;-45
2023/12/15 01:25:01;;;;;;;5.77;5.30;;;15.50;64.30;16.40;101992.00;;;;5057831;28;20182;-43
2023/12/15 01:27:27;;;;;;;5.57;5.07;;;15.50;64.10;16.40;102005.00;;;;5061423;28;20210;-45
2023/12/15 01:29:53;;;;;;;5.87;5.37;;;15.50;64.10;16.40;102019.00;;;;5061061;28;20177;-43
2023/12/15 01:32:18;;;;;;;5.70;5.20;;;15.60;64.10;16.40;102032.00;;;;5057372;28;20206;-44
2023/12/15 01:34:44;;;;;;;5.33;4.93;;;15.50;63.90;16.40;102031.00;;;;5058038;28;20281;-44
2023/12/15 01:37:10;;;;;;;5.60;5.10;;;15.50;63.90;16.50;102032.00;;;;5058601;28;20635;-44
2023/12/15 01:39:36;;;;;;;6.10;5.50;;;15.60;64.00;16.50;102033.00;;;;5061160;28;20193;-44
2023/12/15 01:42:01;;;;;;;6.00;5.50;;;15.50;64.00;16.40;102026.00;;;;5059696;28;20188;-44
2023/12/15 01:44:27;;;;;;;5.73;5.20;;;15.50;64.00;16.50;102027.00;;;;5060318;28;20178;-45
2023/12/15 01:46:53;;;;;;;5.37;4.87;;;15.50;64.00;16.40;102025.00;;;;5061029;28;20202;-44
2023/12/15 01:49:18;;;;;;;5.33;4.83;;;15.50;64.40;16.50;102039.00;;;;5058838;28;20190;-44
2023/12/15 01:51:44;;;;;;;6.20;5.10;;;15.50;64.10;16.20;101963.00;;;;5043976;28;20644;-44
2023/12/15 01:54:10;;;;;;;5.50;5.00;;;15.50;64.10;16.40;102029.00;;;;5061297;28;20193;-44
2023/12/15 01:56:36;;;;;;;5.43;4.93;;;15.50;64.10;16.40;102044.00;;;;5060284;28;20201;-43
2023/12/15 01:59:02;;;;;;;5.23;4.83;;;15.50;64.20;16.40;102037.00;;;;5060015;28;20185;-44
2023/12/15 02:01:27;;;;;;;5.13;4.73;;;15.50;64.40;16.40;102038.00;;;;5060051;28;20170;-44
2023/12/15 02:03:53;;;;;;;5.63;5.13;;;15.50;64.30;16.40;102032.00;;;;5059839;28;20271;-44
2023/12/15 02:06:19;;;;;;;5.60;5.10;;;15.50;64.40;16.40;102038.00;;;;5058894;28;20210;-44
2023/12/15 02:08:45;;;;;;;5.10;4.70;;;15.40;64.40;16.40;102052.00;;;;5063969;28;20174;-47
2023/12/15 02:11:10;;;;;;;5.23;4.80;;;15.40;64.50;16.40;102051.00;;;;5058709;28;20247;-44
2023/12/15 02:13:36;;;;;;;5.50;4.80;;;15.50;64.60;16.40;102059.00;;;;5062674;28;20181;-45
2023/12/15 02:16:02;;;;;;;5.10;4.60;;;15.50;64.70;16.40;102058.00;;;;5060760;28;20208;-44
2023/12/15 02:18:28;;;;;;;4.77;4.37;;;15.50;64.70;16.40;102050.00;;;;5060604;28;20190;-45
2023/12/15 02:20:53;;;;;;;4.63;4.23;;;15.50;64.70;16.40;102048.00;;;;5059455;28;20188;-44
2023/12/15 02:23:19;;;;;;;4.87;4.40;;;15.50;64.80;16.40;102045.00;;;;5058536;28;20171;-44
2023/12/15 02:25:45;;;;;;;4.50;4.10;;;15.50;64.90;16.40;102058.00;;;;5061268;28;20264;-44
2023/12/15 02:28:10;;;;;;;4.53;4.13;;;15.40;64.90;16.40;102047.00;;;;5059298;28;20281;-44
2023/12/15 02:30:36;;;;;;;4.63;4.07;;;15.50;65.00;16.40;102047.00;;;;5060764;28;20778;-44
2023/12/15 02:33:02;;;;;;;5.80;4.10;;;15.50;65.20;16.40;102046.00;;;;5055566;28;20190;-44
2023/12/15 02:35:27;;;;;;;4.10;3.70;;;15.40;65.20;16.40;102053.00;;;;5059528;28;20209;-45
2023/12/15 02:37:53;;;;;;;4.10;3.70;;;15.40;65.30;16.40;102059.00;;;;5059172;28;20262;-45
2023/12/15 02:40:19;;;;;;;3.77;3.47;;;15.50;65.50;16.40;102054.00;;;;5058545;28;20589;-44
2023/12/15 02:42:45;;;;;;;3.83;3.53;;;15.40;65.30;16.40;102060.00;;;;5061374;28;20248;-44
2023/12/15 02:45:10;;;;;;;4.87;3.90;;;15.40;65.50;16.40;102061.00;;;;5061810;28;20248;-44
2023/12/15 02:47:36;;;;;;;3.80;3.40;;;15.40;65.50;16.40;102069.00;;;;5064564;28;20277;-44
2023/12/15 02:50:02;;;;;;;3.70;3.40;;;15.40;65.60;16.30;102071.00;;;;5063067;28;20242;-44
2023/12/15 02:52:27;;;;;;;3.70;3.40;;;15.40;65.70;16.30;102071.00;;;;5063587;28;20220;-45
2023/12/15 02:54:53;;;;;;;3.60;3.30;;;15.40;65.70;16.30;102059.00;;;;5064067;28;20757;-45
2023/12/15 02:57:19;;;;;;;3.73;3.43;;;15.40;65.80;16.30;102057.00;;;;5062392;28;20198;-44
2023/12/15 02:59:45;;;;;;;3.67;3.37;;;15.40;65.90;16.30;102062.00;;;;5064807;28;20170;-44
2023/12/15 03:02:10;;;;;;;4.17;3.30;;;15.40;65.90;16.30;102058.00;;;;5061849;28;20178;-44
2023/12/15 03:04:36;;;;;;;3.60;3.30;;;15.40;66.00;16.30;102059.00;;;;5063564;28;20220;-44
2023/12/15 03:07:02;;;;;;;4.03;3.63;;;15.40;66.10;16.30;102064.00;;;;5062686;28;20549;-44
2023/12/15 03:09:27;;;;;;;3.60;3.30;;;15.30;66.80;16.30;102070.00;;;;5065093;28;20178;-44
2023/12/15 03:11:53;;;;;;;3.50;3.20;;;15.30;66.00;16.30;102052.00;;;;5063986;28;20189;-44
2023/12/15 03:14:19;;;;;;;3.27;3.07;;;15.30;66.20;16.30;102057.00;;;;5061276;28;20206;-45
2023/12/15 03:16:44;;;;;;;3.30;3.00;;;15.30;66.30;16.30;102061.00;;;;5064280;28;20220;-44
2023/12/15 03:19:10;;;;;;;3.57;3.27;;;15.30;66.20;16.30;102058.00;;;;5060183;28;20194;-44
2023/12/15 03:21:36;;;;;;;3.20;3.00;;;15.30;66.40;16.20;102062.00;;;;5064138;28;20174;-44
2023/12/15 03:24:02;;;;;;;3.30;3.07;;;15.30;66.50;16.20;102054.00;;;;5062516;28;20174;-44
2023/12/15 03:26:27;;;;;;;3.17;2.90;;;15.30;66.50;16.20;102069.00;;;;5063794;28;20197;-44
2023/12/15 03:28:53;;;;;;;3.20;2.90;;;15.30;66.60;16.20;102081.00;;;;5063613;28;20174;-44
2023/12/15 03:31:19;;;;;;;3.20;2.90;;;15.30;66.60;16.20;102089.00;;;;5061492;28;20198;-44
2023/12/15 03:33:45;;;;;;;3.20;2.80;;;15.30;66.60;16.20;102091.00;;;;5060481;28;20293;-44
2023/12/15 03:36:10;;;;;;;3.40;3.13;;;15.30;66.60;16.20;102092.00;;;;5060931;28;20202;-44
2023/12/15 03:38:36;;;;;;;3.33;3.03;;;15.30;66.60;16.20;102110.00;;;;5063845;28;20170;-44
2023/12/15 03:41:02;;;;;;;3.13;2.90;;;15.30;66.70;16.20;102109.00;;;;5061042;28;20170;-44
2023/12/15 03:43:28;;;;;;;3.27;2.97;;;15.20;66.70;16.20;102113.00;;;;5062366;28;20236;-45
2023/12/15 03:45:53;;;;;;;3.23;2.93;;;15.20;67.50;16.20;102111.00;;;;5063891;28;20178;-44
2023/12/15 03:48:19;;;;;;;3.40;3.10;;;15.20;66.80;16.10;102112.00;;;;5062173;28;20272;-44
2023/12/15 03:50:45;;;;;;;3.00;2.80;;;15.20;66.90;16.10;102117.00;;;;5063834;28;20246;-44
2023/12/15 03:53:10;;;;;;;3.00;2.80;;;15.20;66.90;16.10;102111.00;;;;5060660;28;20722;-44
2023/12/15 03:55:36;;;;;;;4.47;3.00;;;15.20;66.90;16.10;102110.00;;;;5063142;28;20220;-44
2023/12/15 03:58:02;;;;;;;3.67;2.80;;;15.20;66.90;16.10;102115.00;;;;5062041;28;20659;-44
2023/12/15 04:00:28;;;;;;;3.90;3.07;;;15.20;67.00;16.10;102113.00;;;;5061339;28;20827;-44
2023/12/15 04:02:54;;;;;;;3.37;2.93;;;15.20;66.90;16.10;102128.00;;;;5060475;28;20200;-43
2023/12/15 04:05:20;;;;;;;3.33;3.03;;;15.20;67.00;16.10;102132.00;;;;5064626;28;20636;-44
2023/12/15 04:07:46;;;;;;;3.20;3.00;;;15.20;67.20;16.10;102137.00;;;;5063477;28;20740;-44
2023/12/15 04:10:12;;;;;;;3.73;3.20;;;15.20;67.20;16.10;102137.00;;;;5061363;28;20178;-44
2023/12/15 04:12:37;;;;;;;3.00;2.80;;;15.20;67.30;16.10;102151.00;;;;5054116;28;20658;-44
2023/12/15 04:15:04;;;;;;;3.10;2.80;;;15.10;67.20;16.00;102149.00;;;;5062307;28;20574;-44
2023/12/15 04:17:30;;;;;;;3.37;2.90;;;15.20;67.40;16.00;102136.00;;;;5063096;28;20236;-44
2023/12/15 04:19:55;;;;;;;2.93;2.70;;;15.10;67.30;16.00;102162.00;;;;5063393;28;20201;-44
2023/12/15 04:22:22;;;;;;;3.20;2.73;;;15.20;67.40;16.00;102151.00;;;;5057685;28;20181;-44
2023/12/15 04:24:49;;;;;;;4.40;2.97;;;15.10;67.30;16.00;102154.00;;;;5062756;28;20566;-44
2023/12/15 04:27:14;;;;;;;2.80;2.60;;;15.10;67.30;16.00;102151.00;;;;5063139;28;20241;-44
2023/12/15 04:29:40;;;;;;;4.30;2.70;;;15.10;67.40;16.00;102156.00;;;;5064069;28;20267;-45
2023/12/15 04:32:06;;;;;;;3.13;2.80;;;15.10;69.00;16.00;102156.00;;;;5061582;28;20238;-45
2023/12/15 04:34:33;;;;;;;3.37;3.07;;;15.10;68.20;16.00;102165.00;;;;5056960;28;20272;-45
2023/12/15 04:36:59;;;;;;;3.10;2.90;;;15.10;67.70;16.00;102161.00;;;;5060754;28;20212;-44
2023/12/15 04:39:25;;;;;;;3.73;2.93;;;15.10;67.60;16.00;102163.00;;;;5060259;28;20174;-45
2023/12/15 04:41:50;;;;;;;3.10;2.80;;;15.20;67.70;16.00;102170.00;;;;5063687;28;20205;-44
2023/12/15 04:44:16;;;;;;;3.47;2.80;;;15.10;68.30;15.90;102174.00;;;;5059620;28;20170;-45
2023/12/15 04:46:42;;;;;;;4.87;3.03;;;15.10;67.50;16.00;102177.00;;;;5063368;28;20556;-44
2023/12/15 04:49:08;;;;;;;5.93;3.10;;;15.10;67.60;15.90;102174.00;;;;5061057;28;20202;-44
2023/12/15 04:51:33;;;;;;;4.43;3.07;;;15.10;67.70;15.90;102186.00;;;;5063023;28;20186;-44
2023/12/15 04:53:59;;;;;;;4.27;3.10;;;15.10;67.50;15.90;102178.00;;;;5061951;28;20209;-44
2023/12/15 04:56:25;;;;;;;7.73;3.40;;;15.10;67.40;16.00;102172.00;;;;5061842;28;20683;-44
2023/12/15 04:58:51;;;;;;;4.97;3.17;;;15.10;67.40;16.00;102168.00;;;;5063237;28;20258;-44
2023/12/15 05:01:17;;;;;;;6.43;3.20;;;15.10;67.40;16.00;102179.00;;;;5060624;28;20189;-44
2023/12/15 05:03:43;;;;;;;4.37;3.20;;;15.10;67.20;16.00;102184.00;;;;5062137;28;20178;-44
2023/12/15 05:06:22;;;;;;;3.67;3.10;;;15.10;67.10;16.00;102176.00;;;;5060174;28;20821;-44
2023/12/15 05:08:49;;;;;;;6.47;3.43;;;15.10;67.00;16.00;102177.00;;;;5060207;28;20189;-44
2023/12/15 05:11:14;;;;;;;4.90;2.80;;;15.10;67.00;16.00;102180.00;;;;5060724;28;20556;-44
2023/12/15 05:13:41;;;;;;;4.77;3.03;;;15.10;67.00;16.00;102188.00;;;;5063730;28;20177;-43
2023/12/15 05:16:07;;;;;;;5.10;3.20;;;15.10;66.80;16.00;102112.00;;;;5061299;28;20213;-44
2023/12/15 05:18:33;;;;;;;6.10;3.27;;;15.10;66.80;16.00;102186.00;;;;5062629;28;20181;-44
2023/12/15 05:20:59;;;;;;;8.77;3.50;;;15.10;66.80;16.00;102189.00;;;;5062836;28;20180;-45
2023/12/15 05:23:24;;;;;;;6.97;3.20;;;15.10;66.80;16.00;102189.00;;;;5062272;28;20347;-44
2023/12/15 05:25:50;;;;;;;5.57;3.30;;;15.10;66.80;16.00;102190.00;;;;5058587;28;20189;-45
2023/12/15 05:28:16;;;;;;;6.33;3.03;;;15.10;66.80;16.00;102197.00;;;;5056158;28;20229;-44
2023/12/15 05:30:42;;;;;;;8.57;3.20;;;15.10;66.80;16.00;102201.00;;;;5061730;28;20173;-43
2023/12/15 05:33:08;;;;;;;5.53;3.40;;;15.00;66.70;16.00;102195.00;;;;5055154;28;20189;-43
2023/12/15 05:35:35;;;;;;;8.20;3.20;;;15.00;67.30;16.00;102191.00;;;;5061623;28;20281;-44
2023/12/15 05:38:02;;;;;;;8.83;3.30;;;15.00;67.20;16.00;102195.00;;;;5060633;28;20204;-44
2023/12/15 05:40:29;;;;;;;9.63;3.20;;;15.00;67.80;16.00;102209.00;;;;5061511;28;20231;-44
2023/12/15 05:42:54;;;;;;;7.47;3.00;;;14.90;68.10;16.00;102220.00;;;;5060870;28;20178;-44
2023/12/15 05:45:20;;;;;;;8.47;3.53;;;14.90;67.90;16.00;102211.00;;;;5060465;28;20636;-44
2023/12/15 05:47:47;;;;;;;12.80;3.63;;;14.90;68.20;16.00;102178.00;;;;5062132;28;20193;-44
2023/12/15 05:50:13;;;;;;;5.93;3.50;;;14.90;68.20;16.00;102220.00;;;;5059290;28;20548;-45
2023/12/15 05:52:39;;;;;;;10.33;3.53;;;14.90;68.30;16.00;102200.00;;;;5062400;28;20181;-44
2023/12/15 05:55:05;;;;;;;7.17;3.57;;;15.00;68.30;16.00;102226.00;;;;5059813;28;20267;-44
2023/12/15 05:57:31;;;;;;;7.33;3.50;;;14.90;68.80;15.90;102220.00;;;;5061287;28;20190;-44
2023/12/15 05:59:56;;;;;;;6.90;3.53;;;14.90;69.10;15.90;102239.00;;;;5061532;28;20204;-44
2023/12/15 06:02:22;;;;;;;6.20;3.30;;;15.00;69.40;15.90;102241.00;;;;5059291;28;20861;-44
2023/12/15 06:04:48;;;;;;;8.03;3.20;;;15.00;69.20;15.90;102239.00;;;;5061331;28;20185;-45
2023/12/15 06:07:15;;;;;;;7.07;3.60;;;15.00;69.00;16.00;102251.00;;;;5059078;28;20209;-45
2023/12/15 06:09:42;;;;;;;7.83;3.60;;;15.00;68.80;15.90;102255.00;;;;5062507;28;20177;-45
2023/12/15 06:12:09;;;;;;;7.07;3.80;;;15.00;68.70;16.00;102247.00;;;;5060039;28;20531;-45
2023/12/15 06:14:37;;;;;;;5.57;3.53;;;15.00;68.70;15.90;102233.00;;;;5061645;28;20178;-45
2023/12/15 06:17:06;;;;;;;4.97;3.57;;;15.00;68.30;15.90;102256.00;;;;5044328;28;20689;-45
2023/12/15 06:19:33;;;;;;;6.03;3.40;;;15.00;68.80;15.90;102251.00;;;;5065659;28;20166;-44
2023/12/15 06:21:58;;;;;;;7.17;3.77;;;15.00;68.70;15.90;102255.00;;;;5065736;28;20177;-44
2023/12/15 06:24:24;;;;;;;4.70;3.37;;;15.00;69.00;15.90;102259.00;;;;5059700;28;20261;-44
2023/12/15 06:26:50;;;;;;;7.53;3.53;;;15.00;69.20;15.90;102251.00;;;;5067914;28;20192;-44
2023/12/15 06:29:16;;;;;;;6.20;3.50;;;15.00;69.40;15.90;102252.00;;;;5057274;28;20193;-45
2023/12/15 06:31:47;;;;;;;5.70;3.50;;;15.10;69.40;16.00;102253.00;;;;5068321;28;20169;-44
2023/12/15 06:34:14;;;;;;;7.93;3.77;;;15.10;69.30;16.00;102257.00;;;;5058034;28;20170;-45
2023/12/15 06:36:40;;;;;;;5.27;3.03;;;15.20;69.30;16.10;102258.00;;;;5066122;28;20212;-45
2023/12/15 06:39:05;;;;;;;5.40;3.03;;;15.30;69.30;16.10;102255.00;;;;5063731;28;20177;-45
2023/12/15 06:41:31;;;;;;;5.43;3.50;;;15.40;69.20;16.20;102257.00;;;;5064966;28;20162;-45
2023/12/15 06:43:57;;;;;;;5.43;3.07;;;15.50;69.00;16.20;102261.00;;;;5065102;28;20170;-45
2023/12/15 06:46:23;;;;;;;6.70;3.30;;;15.70;68.90;16.30;102259.00;;;;5063982;28;20178;-45
2023/12/15 06:48:48;;;;;;;5.90;3.37;;;15.80;68.60;16.40;102271.00;;;;5065895;28;20194;-45
2023/12/15 06:51:14;;;;;;;5.10;2.83;;;15.90;68.30;16.50;102271.00;;;;5063797;28;20256;-43
2023/12/15 06:53:40;;;;;;;5.20;3.03;;;16.10;68.10;16.60;102274.00;;;;5066435;28;20174;-44
2023/12/15 06:56:07;;;;;;;4.03;2.83;;;16.10;67.90;16.70;102285.00;;;;5063237;28;20209;-43
2023/12/15 06:58:32;;;;;;;3.00;2.70;;;16.30;67.80;16.80;102289.00;;;;5064911;28;20288;-45
2023/12/15 07:00:58;;;;;;;5.63;2.70;;;16.40;67.70;16.90;102267.00;;;;5060272;28;20185;-44
2023/12/15 07:03:24;;;;;;;6.20;3.03;;;16.50;67.80;17.00;102292.00;;;;5062418;28;20177;-44
2023/12/15 07:05:49;;;;;;;2.83;2.50;;;16.50;67.60;17.00;102287.00;;;;5065591;28;20206;-44
2023/12/15 07:08:15;;;;;;;6.20;2.80;;;16.50;67.70;17.10;102286.00;;;;5062078;28;20198;-45
2023/12/15 07:10:41;;;;;;;11.00;2.80;;;16.60;67.90;17.10;102299.00;;;;5063946;28;20174;-45
2023/12/15 07:13:07;;;;;;;7.33;2.70;;;16.60;67.80;17.20;102307.00;;;;5063257;28;20209;-45
2023/12/15 07:15:33;;;;;;;6.67;2.60;;;16.60;67.70;17.20;102307.00;;;;5065114;28;20232;-44
2023/12/15 07:17:59;;;;;;;7.30;2.70;;;16.80;67.80;17.30;102311.00;;;;5064127;28;20668;-45
2023/12/15 07:20:25;;;;;;;5.53;2.43;;;16.70;67.80;17.30;102315.00;;;;5064162;28;20871;-45
2023/12/15 07:22:51;;;;;;;4.37;2.57;;;16.70;67.90;17.30;102293.00;;;;5065584;28;20174;-44
2023/12/15 07:25:18;;;;;;;7.43;2.67;;;16.70;67.90;17.40;102324.00;;;;5058497;28;20748;-44
2023/12/15 07:27:44;;;;;;;4.13;2.40;;;16.70;68.00;17.40;102311.00;;;;5066669;28;20259;-45
2023/12/15 07:30:10;;;;;;;6.40;2.47;;;16.70;68.10;17.40;102324.00;;;;5060917;28;20235;-44
2023/12/15 07:32:35;;;;;;;4.77;2.40;;;16.70;68.00;17.50;102335.00;;;;5059008;28;20175;-44
2023/12/15 07:35:03;;;;;;;4.77;2.73;;;16.80;68.00;17.50;102333.00;;;;5061663;28;20195;-43
2023/12/15 07:37:29;;;;;;;6.40;2.63;;;16.80;68.00;17.50;102328.00;;;;5062301;28;20205;-45
2023/12/15 07:39:55;;;;;;;8.83;2.73;;;16.80;67.90;17.50;102332.00;;;;5060037;28;20170;-45
2023/12/15 07:42:20;;;;;;;9.33;2.77;;;16.80;68.00;17.50;102336.00;;;;5063125;28;20193;-44
2023/12/15 07:44:46;;;;;;;7.17;2.60;;;16.80;68.10;17.60;102337.00;;;;5064967;28;20225;-44
2023/12/15 07:47:12;;;;;;;9.73;2.77;;;16.80;68.20;17.60;102333.00;;;;5062061;28;20200;-44
2023/12/15 07:49:38;;;;;;;6.30;3.00;;;16.80;68.60;17.60;102342.00;;;;5059476;28;20183;-44
2023/12/15 07:52:04;;;;;;;6.90;2.77;;;16.90;68.20;17.60;102348.00;;;;5056979;28;20820;-44
2023/12/15 07:54:29;;;;;;;6.60;2.30;;;16.80;68.00;17.60;102348.00;;;;5063751;28;20526;-44
2023/12/15 07:56:58;;;;;;;5.07;2.60;;;16.90;68.10;17.60;102344.00;;;;5061353;28;20224;-43
2023/12/15 07:59:24;;;;;;;6.97;2.50;;;16.80;68.10;17.60;102349.00;;;;5061646;28;20175;-43
2023/12/15 08:01:50;;;;;;;6.40;2.70;;;16.80;68.20;17.60;102352.00;;;;5063756;28;20184;-44
2023/12/15 08:04:16;;;;;;;7.57;2.50;;;16.90;68.20;17.70;102355.00;;;;5058887;28;20189;-44
2023/12/15 08:06:42;;;;;;;4.20;2.63;;;16.90;68.20;17.70;102348.00;;;;5064646;28;20200;-44
2023/12/15 08:09:08;;;;;;;4.07;2.50;;;16.90;68.10;17.70;102364.00;;;;5049490;28;20247;-45
2023/12/15 08:11:34;;;;;;;4.43;2.40;;;17.00;68.20;17.70;102366.00;;;;5054841;28;20182;-44
2023/12/15 08:14:03;;;;;;;2.47;2.20;;;16.90;68.30;17.70;102363.00;;;;5061160;28;20230;-45
2023/12/15 08:16:30;;;;;;;5.90;2.80;;;16.90;68.40;17.70;102368.00;;;;5060833;28;20208;-44
2023/12/15 08:18:57;;;;;;;5.47;2.60;;;16.90;68.60;17.70;102378.00;;;;5063228;28;20172;-45
2023/12/15 08:21:23;;;;;;;4.33;2.40;;;16.90;68.80;17.70;102365.00;;;;5060302;28;20183;-45
2023/12/15 08:23:49;;;;;;;5.00;2.70;;;16.90;68.80;17.70;102381.00;;;;5060471;28;20173;-45
2023/12/15 08:26:23;;;;;;;3.77;2.57;;;17.00;68.80;17.80;102392.00;;;;5059697;28;20183;-43
2023/12/15 08:28:49;;;;;;;3.17;2.30;;;17.00;68.90;17.80;102408.00;;;;5058929;28;20639;-46
2023/12/15 08:31:15;;;;;;;3.63;2.50;;;17.00;68.80;17.80;102406.00;;;;5061537;28;20192;-45
2023/12/15 08:33:42;;;;;;;4.63;2.73;;;16.90;68.80;17.80;102424.00;;;;5058709;28;20544;-44
2023/12/15 08:36:09;;;;;;;4.87;2.60;;;17.00;69.00;17.80;102419.00;;;;5060930;28;20261;-44
2023/12/15 08:38:35;;;;;;;3.33;2.73;;;17.00;69.00;17.80;102428.00;;;;5062141;28;20187;-44
2023/12/15 08:41:01;;;;;;;4.23;3.17;;;17.00;68.90;17.80;102420.00;;;;5055940;28;20196;-44
2023/12/15 08:43:27;;;;;;;4.33;2.70;;;17.00;68.80;17.80;102427.00;;;;5057567;28;20182;-44
2023/12/15 08:45:53;;;;;;;4.60;2.60;;;16.90;68.80;17.80;102427.00;;;;5066632;28;20654;-44
2023/12/15 08:48:19;;;;;;;5.20;2.90;;;16.90;68.90;17.80;102433.00;;;;5060541;28;20243;-44
2023/12/15 08:50:45;;;;;;;3.30;2.60;;;16.90;69.00;17.70;102438.00;;;;5064884;28;20171;-44
2023/12/15 08:53:12;;;;;;;6.33;2.80;;;16.90;68.90;17.70;102436.00;;;;5062192;28;20206;-46
2023/12/15 08:55:38;;;;;;;2.90;2.40;;;16.90;68.90;17.70;102434.00;;;;5051357;28;20208;-44
2023/12/15 08:58:04;;;;;;;3.37;2.90;;;16.80;68.90;17.70;102445.00;;;;5062103;28;20220;-44
2023/12/15 09:00:29;;;;;;;4.50;2.43;;;16.80;68.90;17.70;102458.00;;;;5061944;28;20182;-45
2023/12/15 09:02:55;;;;;;;3.63;2.60;;;16.80;69.00;17.70;102470.00;;;;5059517;28;20381;-44
2023/12/15 09:05:23;;;;;;;3.90;2.40;;;16.80;69.10;17.70;102464.00;;;;5061037;28;20293;-44
2023/12/15 09:07:52;;;;;;;6.40;2.70;;;16.80;69.30;17.60;102473.00;;;;5034109;28;20201;-45
2023/12/15 09:10:19;;;;;;;5.40;2.43;;;16.70;69.30;17.60;102487.00;;;;5048978;28;20247;-44
2023/12/15 09:12:45;;;;;;;4.60;2.60;;;16.70;69.30;17.60;102491.00;;;;5063535;28;20570;-44
2023/12/15 09:15:12;;;;;;;5.60;2.80;;;16.80;69.50;17.60;102493.00;;;;5054422;28;20256;-44
2023/12/15 09:17:39;;;;;;;5.43;2.57;;;16.70;69.50;17.60;102491.00;;;;5052393;28;20678;-44
2023/12/15 09:20:06;;;;;;;4.13;2.70;;;16.70;69.70;17.60;102499.00;;;;5060554;28;20271;-44
2023/12/15 09:22:32;;;;;;;4.17;2.60;;;16.60;69.90;17.60;102511.00;;;;5062630;28;20782;-43
2023/12/15 09:24:57;;;;;;;7.43;2.77;;;16.60;70.80;17.50;102489.00;;;;5061001;28;20177;-45
2023/12/15 09:27:23;;;;;;;8.20;2.80;;;16.60;70.00;17.50;102508.00;;;;5062808;28;20211;-44
2023/12/15 09:29:49;;;;;;;4.50;2.83;;;16.60;70.30;17.50;102516.00;;;;5057210;28;20175;-44
2023/12/15 09:32:15;;;;;;;3.13;2.70;;;16.60;70.50;17.50;102519.00;;;;5061511;28;20265;-44
2023/12/15 09:34:41;;;;;;;6.50;2.47;;;16.60;70.80;17.50;102521.00;;;;5059801;28;20223;-44
2023/12/15 09:37:07;;;;;;;2.87;2.47;;;16.60;71.10;17.40;102513.00;;;;5054295;28;20203;-44
2023/12/15 09:39:33;;;;;;;4.37;2.70;;;16.60;71.10;17.50;102519.00;;;;5061314;28;20192;-44
2023/12/15 09:41:59;;;;;;;5.50;2.70;;;16.60;71.10;17.40;102522.00;;;;5060454;28;20186;-44
2023/12/15 09:44:25;;;;;;;3.40;2.50;;;16.60;71.30;17.40;102526.00;;;;5060626;28;20254;-44
2023/12/15 09:46:50;;;;;;;3.03;2.43;;;16.70;71.70;17.40;102528.00;;;;5059178;28;20199;-44
2023/12/15 09:49:17;;;;;;;4.13;2.80;;;16.60;71.40;17.40;102534.00;;;;5056218;28;20198;-44
2023/12/15 09:51:51;;;;;;;5.10;2.70;;;16.60;71.60;17.40;102540.00;;;;5058611;28;20181;-44
2023/12/15 09:54:19;;;;;;;6.43;2.60;;;16.60;71.90;17.40;102543.00;;;;5042124;28;20166;-45
2023/12/15 09:56:46;;;;;;;6.13;3.00;;;16.70;71.60;17.30;102538.00;;;;5062891;28;20299;-44
2023/12/15 09:59:15;;;;;;;6.33;2.50;;;16.60;71.30;17.10;102545.00;;;;5060533;28;20659;-44
2023/12/15 10:01:41;;;;;;;8.37;2.97;;;16.60;71.30;17.30;102555.00;;;;5057652;28;20582;-51
2023/12/15 10:04:07;;;;;;;7.70;2.87;;;16.60;71.50;17.30;102551.00;;;;5056511;28;20227;-44
2023/12/15 10:06:35;;;;;;;7.50;3.10;;;16.60;71.90;17.30;102549.00;;;;5061649;28;20209;-44
2023/12/15 10:09:01;;;;;;;12.53;3.23;;;16.60;72.30;17.30;102556.00;;;;5060508;28;20176;-44
2023/12/15 10:11:28;;;;;;;16.10;3.80;;;16.60;72.10;17.30;102555.00;;;;5056472;28;20230;-44
2023/12/15 10:13:54;;;;;;;18.23;3.60;;;16.60;72.40;17.30;102545.00;;;;5061505;28;20181;-44
2023/12/15 10:16:20;;;;;;;11.13;3.57;;;16.60;72.30;17.30;102568.00;;;;5059899;28;20191;-44
2023/12/15 10:18:46;;;;;;;12.27;3.33;;;16.60;72.50;17.30;102570.00;;;;5062989;28;20193;-44
2023/12/15 10:21:12;;;;;;;12.70;3.60;;;16.60;72.40;17.30;102573.00;;;;5042095;28;20686;-45
2023/12/15 10:23:38;;;;;;;9.97;3.30;;;16.60;72.20;17.30;102574.00;;;;5055715;28;20201;-45
2023/12/15 10:26:07;;;;;;;12.77;3.10;;;16.60;72.10;17.30;102584.00;;;;5059330;28;20192;-45
2023/12/15 10:28:36;;;;;;;9.67;3.50;;;16.60;72.20;17.30;102590.00;;;;5061149;28;21037;-45
2023/12/15 10:31:02;;;;;;;10.23;3.70;;;16.50;71.90;17.30;102595.00;;;;5061270;28;20244;-44
2023/12/15 10:33:29;;;;;;;7.47;2.93;;;16.50;71.70;17.30;102596.00;;;;5057265;28;20180;-44
2023/12/15 10:35:55;;;;;;;4.93;2.97;;;16.50;71.70;17.20;102608.00;;;;5044819;28;20205;-45
2023/12/15 10:38:21;;;;;;;11.20;3.40;;;16.50;71.80;17.20;102604.00;;;;5059166;28;20203;-44
2023/12/15 10:40:46;;;;;;;6.97;3.00;;;16.50;71.70;17.20;102590.00;;;;5061751;28;20192;-44
2023/12/15 10:43:13;;;;;;;6.67;2.97;;;16.50;71.70;17.20;102599.00;;;;5059604;28;20181;-44